RYR5XY LFMU-EGGW
Flight info
| Callsign | RYR5XY |
|---|---|
| Flight time | N/A |
| Altitude | 36000 |
| Route | FJR DCT NG DCT MOLEN DCT MTL DCT ETREK DCT MADOT DCT MOPEM DCT CACHI DCT AVLON DCT OKRIX DCT BRY DCT CLM DCT KOPOR DCT PIREG DCT SOSUN DCT SUBIP UM733 UNDUG |
| Aircraft | B38M/M-SADE3FGILRWY/SB1 |
Departure
| Time | 2026-04-23 12:03 |
|---|---|
| Airport | Béziers Vias airport (LFMU) |
Arrival
| Time | N/A |
|---|---|
| Airport | London Luton Airport (EGGW) |
| Time | Latitude | Longitude | Altitude | Speed | Heading |
|---|---|---|---|---|---|
| 2026-04-23 11:50 | 43.32149 | 3.35379 | 54 ft | 0 kts | 147° |
| 2026-04-23 11:55 | 43.32150 | 3.35380 | 61 ft | 0 kts | 147° |
| 2026-04-23 11:56 | 43.32153 | 3.35377 | 54 ft | 3 kts | 150° |
| 2026-04-23 11:56 | 43.32170 | 3.35370 | 53 ft | 4 kts | 226° |
| 2026-04-23 11:56 | 43.32174 | 3.35398 | 55 ft | 3 kts | 273° |
| 2026-04-23 11:57 | 43.32174 | 3.35402 | 55 ft | 1 kts | 274° |
| 2026-04-23 12:00 | 43.32175 | 3.35386 | 54 ft | 6 kts | 274° |
| 2026-04-23 12:00 | 43.32237 | 3.35330 | 60 ft | 19 kts | 358° |
| 2026-04-23 12:00 | 43.32353 | 3.35242 | 54 ft | 23 kts | 272° |
| 2026-04-23 12:01 | 43.32365 | 3.35006 | 58 ft | 25 kts | 274° |
| 2026-04-23 12:01 | 43.32378 | 3.34761 | 61 ft | 27 kts | 274° |
| 2026-04-23 12:01 | 43.32389 | 3.34500 | 59 ft | 28 kts | 265° |
| 2026-04-23 12:01 | 43.32388 | 3.34269 | 62 ft | 18 kts | 264° |
| 2026-04-23 12:02 | 43.32391 | 3.34196 | 64 ft | 0 kts | 322° |
| 2026-04-23 12:02 | 43.32394 | 3.34195 | 64 ft | 1 kts | 341° |
| 2026-04-23 12:02 | 43.32410 | 3.34211 | 58 ft | 6 kts | 61° |
| 2026-04-23 12:02 | 43.32404 | 3.34334 | 59 ft | 30 kts | 96° |
| 2026-04-23 12:03 | 43.32361 | 3.35031 | 59 ft | 114 kts | 94° |
| 2026-04-23 12:03 | 43.32276 | 3.36393 | 295 ft | 160 kts | 96° |
| 2026-04-23 12:03 | 43.32174 | 3.38032 | 1144 ft | 167 kts | 96° |
| 2026-04-23 12:03 | 43.32375 | 3.39574 | 2376 ft | 175 kts | 69° |
| 2026-04-23 12:04 | 43.33240 | 3.40936 | 3091 ft | 210 kts | 39° |
| 2026-04-23 12:04 | 43.34722 | 3.41727 | 3678 ft | 243 kts | 21° |
| 2026-04-23 12:04 | 43.36391 | 3.42490 | 4484 ft | 262 kts | 22° |
| 2026-04-23 12:04 | 43.38132 | 3.43416 | 5433 ft | 271 kts | 34° |
| 2026-04-23 12:05 | 43.39452 | 3.45175 | 6642 ft | 264 kts | 62° |
| 2026-04-23 12:05 | 43.40323 | 3.47405 | 7586 ft | 269 kts | 65° |
| 2026-04-23 12:05 | 43.41179 | 3.49735 | 8531 ft | 276 kts | 64° |
| 2026-04-23 12:05 | 43.42046 | 3.52135 | 9447 ft | 284 kts | 64° |
| 2026-04-23 12:06 | 43.42928 | 3.54608 | 10348 ft | 291 kts | 63° |
| 2026-04-23 12:06 | 43.43834 | 3.57173 | 10974 ft | 307 kts | 63° |
| 2026-04-23 12:06 | 43.45779 | 3.62723 | 12235 ft | 331 kts | 61° |
| 2026-04-23 12:07 | 43.46774 | 3.65575 | 13125 ft | 333 kts | 61° |
| 2026-04-23 12:07 | 43.47783 | 3.68468 | 13930 ft | 338 kts | 62° |
| 2026-04-23 12:07 | 43.48806 | 3.71404 | 14637 ft | 342 kts | 62° |
| 2026-04-23 12:07 | 43.49837 | 3.74368 | 15307 ft | 346 kts | 61° |
| 2026-04-23 12:08 | 43.50880 | 3.77372 | 16150 ft | 349 kts | 61° |
| 2026-04-23 12:08 | 43.51939 | 3.80420 | 16884 ft | 355 kts | 61° |
| 2026-04-23 12:08 | 43.53009 | 3.83504 | 17610 ft | 358 kts | 61° |
| 2026-04-23 12:08 | 43.54074 | 3.86578 | 18276 ft | 362 kts | 61° |
| 2026-04-23 12:09 | 43.55165 | 3.89733 | 18912 ft | 367 kts | 60° |
| 2026-04-23 12:09 | 43.56268 | 3.92925 | 19524 ft | 371 kts | 60° |
| 2026-04-23 12:09 | 43.57386 | 3.96141 | 20085 ft | 373 kts | 58° |
| 2026-04-23 12:09 | 43.58883 | 3.99004 | 20620 ft | 367 kts | 43° |
| 2026-04-23 12:10 | 43.60620 | 4.01693 | 21117 ft | 372 kts | 44° |
| 2026-04-23 12:10 | 43.62336 | 4.04368 | 21682 ft | 374 kts | 44° |
| 2026-04-23 12:10 | 43.64050 | 4.07024 | 22200 ft | 377 kts | 44° |
| 2026-04-23 12:10 | 43.65801 | 4.09729 | 22699 ft | 379 kts | 44° |
| 2026-04-23 12:11 | 43.67564 | 4.12452 | 23167 ft | 381 kts | 44° |
| 2026-04-23 12:11 | 43.69339 | 4.15195 | 23613 ft | 384 kts | 44° |
| 2026-04-23 12:11 | 43.71124 | 4.17956 | 24006 ft | 386 kts | 44° |
| 2026-04-23 12:11 | 43.72915 | 4.20728 | 24346 ft | 388 kts | 43° |
| 2026-04-23 12:12 | 43.74718 | 4.23521 | 24679 ft | 390 kts | 43° |
| 2026-04-23 12:12 | 43.76529 | 4.26330 | 25008 ft | 392 kts | 43° |
| 2026-04-23 12:12 | 43.78347 | 4.29153 | 25317 ft | 394 kts | 43° |
| 2026-04-23 12:12 | 43.80178 | 4.31998 | 25612 ft | 397 kts | 43° |
| 2026-04-23 12:13 | 43.82016 | 4.34856 | 25909 ft | 398 kts | 42° |
| 2026-04-23 12:13 | 43.83863 | 4.37731 | 26192 ft | 400 kts | 42° |
| 2026-04-23 12:13 | 43.85912 | 4.40256 | 26428 ft | 391 kts | 26° |
| 2026-04-23 12:13 | 43.88342 | 4.41849 | 26669 ft | 386 kts | 17° |
| 2026-04-23 12:14 | 43.90839 | 4.43276 | 26864 ft | 389 kts | 17° |
| 2026-04-23 12:14 | 43.93351 | 4.44677 | 27127 ft | 390 kts | 16° |
| 2026-04-23 12:14 | 43.95879 | 4.46062 | 27377 ft | 391 kts | 16° |
| 2026-04-23 12:14 | 43.98414 | 4.47437 | 27621 ft | 392 kts | 15° |
| 2026-04-23 12:15 | 44.00963 | 4.48814 | 27850 ft | 393 kts | 15° |
| 2026-04-23 12:15 | 44.03520 | 4.50194 | 28095 ft | 395 kts | 15° |
| 2026-04-23 12:15 | 44.06084 | 4.51564 | 28299 ft | 396 kts | 15° |
| 2026-04-23 12:15 | 44.08657 | 4.52926 | 28507 ft | 397 kts | 15° |
| 2026-04-23 12:16 | 44.11242 | 4.54297 | 28698 ft | 398 kts | 15° |
| 2026-04-23 12:16 | 44.13835 | 4.55674 | 28904 ft | 399 kts | 15° |
| 2026-04-23 12:16 | 44.16433 | 4.57056 | 29092 ft | 400 kts | 15° |
| 2026-04-23 12:16 | 44.19042 | 4.58445 | 29319 ft | 401 kts | 15° |
| 2026-04-23 12:17 | 44.21640 | 4.59829 | 29531 ft | 401 kts | 15° |
| 2026-04-23 12:17 | 44.24255 | 4.61223 | 29640 ft | 403 kts | 15° |
| 2026-04-23 12:17 | 44.26871 | 4.62620 | 29814 ft | 403 kts | 15° |
| 2026-04-23 12:17 | 44.29493 | 4.64021 | 29967 ft | 404 kts | 15° |
| 2026-04-23 12:18 | 44.32121 | 4.65426 | 30107 ft | 405 kts | 15° |
| 2026-04-23 12:18 | 44.34748 | 4.66833 | 30277 ft | 405 kts | 15° |
| 2026-04-23 12:18 | 44.37378 | 4.68242 | 30427 ft | 405 kts | 15° |
| 2026-04-23 12:18 | 44.40015 | 4.69656 | 30538 ft | 406 kts | 15° |
| 2026-04-23 12:19 | 44.42624 | 4.71057 | 30662 ft | 407 kts | 15° |
| 2026-04-23 12:19 | 44.45269 | 4.72479 | 30789 ft | 408 kts | 15° |
| 2026-04-23 12:19 | 44.47921 | 4.73905 | 30892 ft | 409 kts | 15° |
| 2026-04-23 12:19 | 44.50576 | 4.75334 | 31039 ft | 410 kts | 15° |
| 2026-04-23 12:20 | 44.53243 | 4.76752 | 31192 ft | 409 kts | 13° |
| 2026-04-23 12:20 | 44.55999 | 4.77441 | 31319 ft | 399 kts | 356° |
| 2026-04-23 12:20 | 44.61509 | 4.76557 | 31489 ft | 400 kts | 349° |
| 2026-04-23 12:21 | 44.64264 | 4.76002 | 31655 ft | 401 kts | 348° |
| 2026-04-23 12:21 | 44.67024 | 4.75419 | 31770 ft | 402 kts | 348° |
| 2026-04-23 12:21 | 44.69792 | 4.74818 | 31918 ft | 403 kts | 348° |
| 2026-04-23 12:21 | 44.72565 | 4.74207 | 32080 ft | 404 kts | 348° |
| 2026-04-23 12:22 | 44.75347 | 4.73591 | 32200 ft | 405 kts | 348° |
| 2026-04-23 12:22 | 44.78138 | 4.72971 | 32376 ft | 406 kts | 348° |
| 2026-04-23 12:22 | 44.80928 | 4.72350 | 32601 ft | 406 kts | 348° |
| 2026-04-23 12:22 | 44.83719 | 4.71728 | 32849 ft | 406 kts | 348° |
| 2026-04-23 12:23 | 44.86515 | 4.71106 | 33088 ft | 406 kts | 348° |
| 2026-04-23 12:23 | 44.89300 | 4.70485 | 33374 ft | 405 kts | 348° |
| 2026-04-23 12:23 | 44.92089 | 4.69861 | 33595 ft | 407 kts | 348° |
| 2026-04-23 12:23 | 44.94889 | 4.69235 | 33791 ft | 408 kts | 348° |
| 2026-04-23 12:24 | 44.97690 | 4.68608 | 34075 ft | 408 kts | 348° |
| 2026-04-23 12:24 | 45.00494 | 4.67980 | 34347 ft | 408 kts | 348° |
| 2026-04-23 12:24 | 45.03299 | 4.67352 | 34611 ft | 408 kts | 348° |
| 2026-04-23 12:24 | 45.06098 | 4.66724 | 34866 ft | 408 kts | 348° |
| 2026-04-23 12:25 | 45.08897 | 4.66095 | 35125 ft | 408 kts | 348° |
| 2026-04-23 12:25 | 45.11701 | 4.65464 | 35370 ft | 408 kts | 348° |
| 2026-04-23 12:25 | 45.14511 | 4.64831 | 35570 ft | 410 kts | 348° |
| 2026-04-23 12:25 | 45.17330 | 4.64196 | 35834 ft | 410 kts | 348° |
| 2026-04-23 12:26 | 45.20144 | 4.63555 | 36103 ft | 410 kts | 348° |
| 2026-04-23 12:26 | 45.22958 | 4.62914 | 36240 ft | 411 kts | 348° |
| 2026-04-23 12:26 | 45.28573 | 4.61632 | 36247 ft | 406 kts | 348° |
| 2026-04-23 12:27 | 45.34170 | 4.60352 | 36240 ft | 408 kts | 348° |
| 2026-04-23 12:27 | 45.39777 | 4.59068 | 36243 ft | 408 kts | 348° |
| 2026-04-23 12:28 | 45.45392 | 4.57778 | 36231 ft | 408 kts | 348° |
| 2026-04-23 12:28 | 45.51000 | 4.56489 | 36242 ft | 410 kts | 349° |
| 2026-04-23 12:29 | 45.56608 | 4.55195 | 36239 ft | 411 kts | 349° |
| 2026-04-23 12:29 | 45.62259 | 4.53890 | 36243 ft | 412 kts | 349° |
| 2026-04-23 12:30 | 45.67909 | 4.52583 | 36241 ft | 411 kts | 349° |
| 2026-04-23 12:30 | 45.72656 | 4.51481 | 36248 ft | 415 kts | 349° |
| 2026-04-23 12:31 | 45.78358 | 4.50156 | 36254 ft | 416 kts | 349° |
| 2026-04-23 12:31 | 45.84029 | 4.48835 | 36253 ft | 415 kts | 349° |
| 2026-04-23 12:32 | 45.89741 | 4.47503 | 36251 ft | 416 kts | 349° |
| 2026-04-23 12:32 | 45.95519 | 4.46151 | 36252 ft | 424 kts | 349° |
| 2026-04-23 12:33 | 46.01338 | 4.44788 | 36256 ft | 423 kts | 349° |
| 2026-04-23 12:33 | 46.07150 | 4.43423 | 36251 ft | 423 kts | 349° |
| 2026-04-23 12:34 | 46.12987 | 4.42049 | 36254 ft | 428 kts | 350° |
| 2026-04-23 12:34 | 46.18877 | 4.40660 | 36255 ft | 429 kts | 350° |
| 2026-04-23 12:35 | 46.24761 | 4.39269 | 36250 ft | 429 kts | 350° |
| 2026-04-23 12:35 | 46.30540 | 4.37554 | 36266 ft | 422 kts | 345° |
| 2026-04-23 12:36 | 46.36297 | 4.35499 | 36257 ft | 429 kts | 346° |
| 2026-04-23 12:36 | 46.42103 | 4.33470 | 36261 ft | 429 kts | 346° |
| 2026-04-23 12:37 | 46.47910 | 4.31442 | 36249 ft | 429 kts | 346° |
| 2026-04-23 12:37 | 46.53730 | 4.29405 | 36252 ft | 431 kts | 346° |
| 2026-04-23 12:38 | 46.59566 | 4.27358 | 36254 ft | 432 kts | 346° |
| 2026-04-23 12:38 | 46.65402 | 4.25306 | 36256 ft | 431 kts | 346° |
| 2026-04-23 12:39 | 46.71202 | 4.23263 | 36265 ft | 432 kts | 346° |
| 2026-04-23 12:39 | 46.77044 | 4.21200 | 36261 ft | 432 kts | 346° |
| 2026-04-23 12:40 | 46.82887 | 4.19133 | 36265 ft | 432 kts | 346° |
| 2026-04-23 12:40 | 46.88721 | 4.17064 | 36261 ft | 432 kts | 346° |
| 2026-04-23 12:41 | 46.94579 | 4.14982 | 36267 ft | 434 kts | 347° |
| 2026-04-23 12:41 | 47.00456 | 4.12889 | 36272 ft | 435 kts | 347° |
| 2026-04-23 12:42 | 47.06330 | 4.10764 | 36266 ft | 434 kts | 343° |
| 2026-04-23 12:42 | 47.11953 | 4.07545 | 36261 ft | 434 kts | 339° |
| 2026-04-23 12:43 | 47.17571 | 4.04234 | 36268 ft | 435 kts | 338° |
| 2026-04-23 12:43 | 47.23187 | 4.00909 | 36267 ft | 435 kts | 338° |
| 2026-04-23 12:44 | 47.28804 | 3.97577 | 36264 ft | 435 kts | 338° |
| 2026-04-23 12:44 | 47.34423 | 3.94236 | 36265 ft | 437 kts | 339° |
| 2026-04-23 12:45 | 47.40089 | 3.90859 | 36268 ft | 439 kts | 339° |
| 2026-04-23 12:45 | 47.45756 | 3.87474 | 36275 ft | 440 kts | 339° |
| 2026-04-23 12:46 | 47.51423 | 3.84080 | 36273 ft | 439 kts | 339° |
| 2026-04-23 12:46 | 47.57111 | 3.80666 | 36269 ft | 445 kts | 340° |
| 2026-04-23 12:47 | 47.62887 | 3.77195 | 36276 ft | 448 kts | 339° |
| 2026-04-23 12:47 | 47.68655 | 3.73718 | 36282 ft | 447 kts | 340° |
| 2026-04-23 12:48 | 47.74419 | 3.70237 | 36280 ft | 448 kts | 339° |
| 2026-04-23 12:48 | 47.80223 | 3.66721 | 36280 ft | 452 kts | 339° |
| 2026-04-23 12:49 | 47.86052 | 3.63182 | 36287 ft | 453 kts | 339° |
| 2026-04-23 12:49 | 47.91840 | 3.59659 | 36294 ft | 452 kts | 339° |
| 2026-04-23 12:50 | 47.97698 | 3.56081 | 36279 ft | 454 kts | 339° |
| 2026-04-23 12:50 | 48.03537 | 3.52497 | 36296 ft | 457 kts | 339° |
| 2026-04-23 12:51 | 48.09416 | 3.48879 | 36295 ft | 457 kts | 339° |
| 2026-04-23 12:51 | 48.15290 | 3.45256 | 36297 ft | 457 kts | 339° |
| 2026-04-23 12:52 | 48.21179 | 3.41615 | 36308 ft | 459 kts | 339° |
| 2026-04-23 12:52 | 48.27052 | 3.37973 | 36312 ft | 455 kts | 339° |
| 2026-04-23 12:53 | 48.32900 | 3.34340 | 36297 ft | 456 kts | 339° |
| 2026-04-23 12:53 | 48.38762 | 3.30688 | 36296 ft | 455 kts | 339° |
| 2026-04-23 12:54 | 48.44617 | 3.26971 | 36307 ft | 460 kts | 339° |
| 2026-04-23 12:54 | 48.50515 | 3.23210 | 36303 ft | 460 kts | 339° |
| 2026-04-23 12:55 | 48.56408 | 3.19446 | 36312 ft | 460 kts | 339° |
| 2026-04-23 12:55 | 48.62301 | 3.15671 | 36293 ft | 461 kts | 339° |
| 2026-04-23 12:56 | 48.68238 | 3.11857 | 36309 ft | 465 kts | 339° |
| 2026-04-23 12:56 | 48.74192 | 3.08024 | 36312 ft | 465 kts | 339° |
| 2026-04-23 12:57 | 48.80141 | 3.04183 | 36335 ft | 463 kts | 338° |
| 2026-04-23 12:57 | 48.85931 | 3.00077 | 36328 ft | 458 kts | 331° |
| 2026-04-23 12:58 | 48.91472 | 2.95271 | 36317 ft | 459 kts | 331° |
| 2026-04-23 12:58 | 48.96970 | 2.90462 | 36335 ft | 460 kts | 331° |
| 2026-04-23 12:59 | 49.02507 | 2.85603 | 36325 ft | 459 kts | 331° |
| 2026-04-23 12:59 | 49.08042 | 2.80736 | 36337 ft | 462 kts | 331° |
| 2026-04-23 13:00 | 49.13637 | 2.75802 | 36343 ft | 464 kts | 331° |
| 2026-04-23 13:00 | 49.19224 | 2.70862 | 36343 ft | 464 kts | 331° |
| 2026-04-23 13:01 | 49.24805 | 2.65914 | 36347 ft | 464 kts | 331° |
| 2026-04-23 13:01 | 49.30349 | 2.60986 | 36329 ft | 459 kts | 331° |
| 2026-04-23 13:02 | 49.35878 | 2.56059 | 36349 ft | 460 kts | 331° |
| 2026-04-23 13:02 | 49.41415 | 2.51112 | 36348 ft | 461 kts | 331° |
| 2026-04-23 13:03 | 49.46954 | 2.46150 | 36350 ft | 460 kts | 331° |
| 2026-04-23 13:03 | 49.52350 | 2.40877 | 36333 ft | 463 kts | 319° |
| 2026-04-23 13:04 | 49.57170 | 2.34195 | 36338 ft | 467 kts | 319° |